PAGY/SGY METAR and TAF weather

Enter ICAO airport designator
Station Type Date Time Source
PAGY METAR 2020/03/28 13:53 UTC NOAA

PAGY 281353Z AUTO 02013G22KT 10SM OVC100 M06/M21 A2978 RMK AO2 SLP083 T10611206 TSNO


Station Type Date Time Source
PAGY Decoded METAR 2020/03/28 13:53 UTC NOAA

SKAGWAY AIRPORT, AK, United States (PAGY) 59-28N 135-19W 5M
Mar 28, 2020 - 09:53 AM EDT / 2020.03.28 1353 UTC
Wind: from the NNE (020 degrees) at 15 MPH (13 KT) gusting to 25 MPH (22 KT):0
Visibility: 10 mile(s):0
Sky conditions: overcast
Temperature: 21.0 F (-6.1 C)
Windchill: 6 F (-14 C):1
Dew Point: -5.1 F (-20.6 C)
Relative Humidity: 30%
Pressure (altimeter): 29.78 in. Hg (1008 hPa)
ob: PAGY 281353Z AUTO 02013G22KT 10SM OVC100 M06/M21 A2978 RMK AO2 SLP083 T10611206 TSNO
cycle: 14

Station Type Date Time Source
PAGY TAF 2020/03/28 12:36 UTC NOAA

TAF PAGY 281133Z 2812/2912 03015G23KT P6SM SKC
FM282100 03020G30KT P6SM BKN050
AMD LTD TO CLD VIS AND WIND

Example: see airport list